• Join FlightAware (Why Join?)
  • Login
  • US Flag 
09:54PM EDT


 

Airport Tracker/Info


-or-


 

Live Flight TrackerFlight Track Log ✈ TAM3469 ✈ 15-May-2014 ✈ SBGO / GYN - SBSP / CGH

Flight Track Log - Related Links

Times and Time Zones

All times are in EDT time to prevent confusion due to time zone crossing. See the TAM3469 flight status page for this flight to view local times or setup timezone preferences in your user account.

Time Position Orientation Groundspeed Altitude Reporting Facility
EDT Latitude Longitude Course Direction KTS MPH feet Rate Location/Type
07:23PM -19.5730 -48.1881 131° Southeast 486 559 35,000  Level FlightAware ADS-B (SDAM)
07:24PM -19.6192 -48.1334 131° Southeast 486 559 35,000  Level FlightAware ADS-B (SDAM)
07:24PM -19.6590 -48.0859 131° Southeast 486 559 35,000  Level FlightAware ADS-B (SDAM)
07:25PM -19.7078 -48.0278 131° Southeast 486 559 35,000  Level FlightAware ADS-B (SDAM)
07:25PM -19.7505 -47.9705 125° Southeast 490 564 35,000  Level FlightAware ADS-B (SDAM)
07:26PM -19.7921 -47.9000 118° Southeast 493 567 35,000  Level FlightAware ADS-B (SDAM)
07:26PM -19.8327 -47.8127 115° Southeast 494 568 35,000  Level FlightAware ADS-B (SDAM)
07:27PM -19.8628 -47.7469 115° Southeast 494 568 35,000  Level FlightAware ADS-B (SDAM)
07:27PM -19.8902 -47.6874 115° Southeast 493 567 35,000  Level FlightAware ADS-B (SDAM)
07:28PM -19.9230 -47.6159 115° Southeast 494 568 35,000  Level FlightAware ADS-B (SDAM)
07:28PM -19.9530 -47.5502 115° Southeast 494 568 35,000  Level FlightAware ADS-B (SDAM)
07:29PM -19.9826 -47.4854 115° Southeast 494 568 35,000  Level FlightAware ADS-B (SDAM)
07:29PM -20.0126 -47.4197 115° Southeast 494 568 35,000  Level FlightAware ADS-B (SDAM)
07:30PM -20.0427 -47.3534 115° Southeast 493 567 35,000  Level FlightAware ADS-B (SDAM)
07:30PM -20.0728 -47.2876 115° Southeast 493 567 35,000  Level FlightAware ADS-B (SDAM)
07:31PM -20.1039 -47.2243 120° Southeast 492 566 35,000  Level FlightAware ADS-B (SDAM)
07:31PM -20.1427 -47.1650 127° Southeast 489 563 35,000  Level FlightAware ADS-B (SDAM)
07:32PM -20.1879 -47.1109 134° Southeast 485 558 35,000  Level FlightAware ADS-B (SDAM)
07:32PM -20.2457 -47.0575 142° Southeast 481 554 35,000  Level FlightAware ADS-B (SBBH / PLU)
07:33PM -20.2990 -47.0196 148° Southeast 477 549 35,000  Level FlightAware ADS-B (SBBH / PLU)
07:33PM -20.3594 -46.9868 155° Southeast 470 541 35,000  Level FlightAware ADS-B (SBBH / PLU)
07:34PM -20.4204 -46.9628 162° South 465 535 35,000  Level FlightAware ADS-B (SBBH / PLU)
07:34PM -20.4637 -46.9507 167° South 461 531 35,000  Level FlightAware ADS-B (SDAM)
07:35PM -20.5665 -46.9341 172° South 458 527 35,000  Level FlightAware ADS-B (SBBH / PLU)
07:36PM -20.6312 -46.9247 172° South 458 527 35,000  Level FlightAware ADS-B (SBBH / PLU)
07:36PM -20.6925 -46.9156 172° South 458 527 35,000  Level FlightAware ADS-B (SBBH / PLU)
07:37PM -20.7563 -46.9064 172° South 458 527 35,000  Level FlightAware ADS-B (SBBH / PLU)
07:37PM -20.8195 -46.8972 172° South 456 525 35,000  Level FlightAware ADS-B (SBBH / PLU)
07:38PM -20.8840 -46.8878 172° South 455 524 35,000  Level FlightAware ADS-B (SBBH / PLU)
07:38PM -20.9435 -46.8789 171° South 453 521 35,000  Level FlightAware ADS-B (SBBH / PLU)
07:39PM -21.0073 -46.8690 171° South 452 520 35,000  Level FlightAware ADS-B (SBBH / PLU)
07:39PM -21.0700 -46.8595 171° South 452 520 35,000  Level FlightAware ADS-B (SBBH / PLU)
07:40PM -21.1322 -46.8503 172° South 452 520 35,000  Level FlightAware ADS-B (SBBH / PLU)
07:40PM -21.1934 -46.8413 172° South 452 520 35,000  Level FlightAware ADS-B (SDAM)
07:41PM -21.2595 -46.8316 172° South 453 521 35,000  Level FlightAware ADS-B (SDAM)
07:41PM -21.3222 -46.8224 172° South 454 522 35,000  Level FlightAware ADS-B (SDAM)
07:42PM -21.3858 -46.8130 172° South 455 524 35,000  Level FlightAware ADS-B (SDAM)
07:42PM -21.4476 -46.8039 172° South 458 527 35,000  Level FlightAware ADS-B (SDAM)
07:43PM -21.5697 -46.7858 172° South 459 528 35,000  Level FlightAware ADS-B (SBSP / CGH)
07:44PM -21.6323 -46.7765 172° South 459 528 35,000 -180 Level FlightAware ADS-B (SBSP / CGH)
07:45PM -21.7641 -46.7571 172° South 463 533 34,800 -360 Descending FlightAware ADS-B (SDAM)
07:45PM -21.8279 -46.7476 172° South 461 531 34,500 -720 Descending FlightAware ADS-B (SDAM)
07:46PM -21.8928 -46.7379 172° South 457 526 34,100 -900 Descending FlightAware ADS-B (SDAM)
07:46PM -21.9549 -46.7287 172° South 457 526 33,600 -960 Descending FlightAware ADS-B (SDAM)
07:47PM -22.0172 -46.7195 172° South 458 527 33,200 -2,340 Descending FlightAware ADS-B (SDAM)
07:47PM -22.0816 -46.7099 172° South 475 547 31,300 -3,900 Descending FlightAware ADS-B (SDAM)
07:48PM -22.1497 -46.6996 171° South 489 563 29,300 -3,060 Descending FlightAware ADS-B (SDAM)
07:48PM -22.2142 -46.6894 171° South 474 545 28,300 -2,100 Descending FlightAware ADS-B (SDAM)
07:49PM -22.2787 -46.6792 171° South 459 528 27,200 -2,280 Descending FlightAware ADS-B (SDAM)
07:49PM -22.3426 -46.6693 171° South 452 520 26,000 -2,340 Descending FlightAware ADS-B (SDAM)
07:50PM -22.4036 -46.6638 185° South 426 490 24,900 -2,520 Descending FlightAware ADS-B (SDAM)
07:50PM -22.4214 -46.6669 193° South 417 480 24,400 -2,700 Descending FlightAware ADS-B (SDAM)
07:50PM -22.4408 -46.6738 203° Southwest 406 467 24,000 -2,400 Descending FlightAware ADS-B (SDAM)
07:50PM -22.4562 -46.6826 212° Southwest 395 455 23,600 -2,640 Descending FlightAware ADS-B (SDAM)
07:51PM -22.4984 -46.7195 220° Southwest 386 444 22,200 -2,640 Descending FlightAware ADS-B (SDAM)
07:51PM -22.5405 -46.7548 217° Southwest 386 444 21,000 -2,160 Descending FlightAware ADS-B (SDAM)
07:52PM -22.5841 -46.7894 217° Southwest 378 435 20,100 -1,380 Descending FlightAware ADS-B (SDAM)
07:52PM -22.6235 -46.8207 217° Southwest 366 421 19,600 -900 Descending FlightAware ADS-B (SDAM)
07:53PM -22.6655 -46.8540 217° Southwest 362 417 19,200 -960 Descending FlightAware ADS-B (SDAM)
07:53PM -22.7060 -46.8865 217° Southwest 361 415 18,700 -1,020 Descending FlightAware ADS-B (SDAM)
07:54PM -22.7461 -46.9184 217° Southwest 360 414 18,200 -1,140 Descending FlightAware ADS-B (SDAM)
07:54PM -22.7866 -46.9508 217° Southwest 356 410 17,600 -1,320 Descending FlightAware ADS-B (SDAM)
07:55PM -22.8258 -46.9821 217° Southwest 351 404 16,900 -1,680 Descending FlightAware ADS-B (SDAM)
07:55PM -22.8657 -47.0139 217° Southwest 347 399 16,000 -1,680 Descending FlightAware ADS-B (SDAM)
07:56PM -22.9047 -47.0449 217° Southwest 343 395 15,200 -1,500 Descending FlightAware ADS-B (SDAM)
07:56PM -22.9414 -47.0744 217° Southwest 340 391 14,500 -1,560 Descending FlightAware ADS-B (SDAM)
07:57PM -22.9801 -47.1054 217° Southwest 336 387 13,700 -1,500 Descending FlightAware ADS-B (SDAM)
07:57PM -22.9943 -47.1142 206° Southwest 339 390 13,500 -1,500 Descending FlightAware ADS-B (SDAM)
07:57PM -23.0077 -47.1185 192° South 341 392 13,200 -1,740 Descending FlightAware ADS-B (SDAM)
07:57PM -23.0253 -47.1191 177° South 344 396 12,900 -1,500 Descending FlightAware ADS-B (SDAM)
07:57PM -23.0402 -47.1153 162° South 346 398 12,700 -1,560 Descending FlightAware ADS-B (SDAM)
07:58PM -23.0818 -47.0976 157° South 343 395 11,900 -1,620 Descending FlightAware ADS-B (SDAM)
07:58PM -23.1291 -47.0769 158° South 339 390 11,100 -780 Descending FlightAware ADS-B (SDAM)
07:59PM -23.1853 -47.0527 158° South 313 360 11,000 -120 Descending FlightAware ADS-B (SDAM)
07:59PM -23.2246 -47.0360 158° South 313 360 11,000 -120 Level FlightAware ADS-B (SDAM)
08:00PM -23.2542 -47.0198 142° Southeast 294 338 10,900 -720 Descending FlightAware ADS-B (SDAM)
08:00PM -23.2729 -46.9988 133° Southeast 291 335 10,500 -1,380 Descending FlightAware ADS-B (SDAM)
08:01PM -23.2910 -46.9771 132° Southeast 292 336 10,000 -1,500 Descending FlightAware ADS-B (SDAM)
08:01PM -23.3057 -46.9597 132° Southeast 292 336 9,600 -1,440 Descending FlightAware ADS-B (SDAM)
08:01PM -23.3188 -46.9442 132° Southeast 288 331 9,300 -1,080 Descending FlightAware ADS-B (SDAM)
08:01PM -23.3321 -46.9281 132° Southeast 283 326 9,100 -1,380 Descending FlightAware ADS-B (SDAM)
08:02PM -23.3454 -46.9132 132° Southeast 276 318 8,600 -1,920 Descending FlightAware ADS-B (SDAM)
08:02PM -23.3564 -46.9005 133° Southeast 270 311 8,200 -2,040 Descending FlightAware ADS-B (SDAM)
08:02PM -23.3717 -46.8825 133° Southeast 270 311 7,600 -2,160 Descending FlightAware ADS-B (SDAM)
08:02PM -23.3827 -46.8700 133° Southeast 270 311 7,100 -2,220 Descending FlightAware ADS-B (SDAM)
08:03PM -23.3943 -46.8563 133° Southeast 270 311 6,500 -1,920 Descending FlightAware ADS-B (SDAM)
08:03PM -23.4133 -46.8343 132° Southeast 267 307 6,000 -1,320 Descending FlightAware ADS-B (SBSP / CGH)
08:03PM -23.4251 -46.8194 129° Southeast 260 299 5,800 -660 Descending FlightAware ADS-B (SBSP / CGH)
08:03PM -23.4359 -46.8045 127° Southeast 250 288 5,700 -420 Descending FlightAware ADS-B (SBSP / CGH)
08:04PM -23.4467 -46.7901 130° Southeast 240 276 5,600 -360 Descending FlightAware ADS-B (SBSP / CGH)
08:04PM -23.4480 -46.7884 127° Southeast 249 287 5,600 -300 Level FlightAware ADS-B (SDAM)
08:04PM -23.4616 -46.7733 137° Southeast 227 261 5,500 -420 Descending FlightAware ADS-B (SBSP / CGH)
08:04PM -23.4738 -46.7631 144° Southeast 217 250 5,400 -420 Descending FlightAware ADS-B (SBSP / CGH)
08:04PM -23.4860 -46.7540 146° Southeast 206 237 5,300 -600 Descending FlightAware ADS-B (SBSP / CGH)
08:05PM -23.4977 -46.7458 147° Southeast 201 231 5,100 -1,020 Descending FlightAware ADS-B (SBSP / CGH)
08:05PM -23.5095 -46.7375 146° Southeast 188 216 4,800 -1,020 Descending FlightAware ADS-B (SBSP / CGH)
08:05PM -23.5201 -46.7300 147° Southeast 178 205 4,600 -780 Descending FlightAware ADS-B (SBSP / CGH)
08:05PM -23.5300 -46.7233 148° Southeast 162 186 4,400 -840 Descending FlightAware ADS-B (SBSP / CGH)
08:06PM -23.5391 -46.7170 147° Southeast 153 176 4,200 -840 Descending FlightAware ADS-B (SBSP / CGH)
08:06PM -23.5479 -46.7109 147° Southeast 145 167 4,000 -720 Descending FlightAware ADS-B (SBSP / CGH)
08:06PM -23.5593 -46.7030 147° Southeast 145 167 3,800 -720 Descending FlightAware ADS-B (SBSP / CGH)
08:07PM -23.5672 -46.6977 147° Southeast 143 165 3,600 -840 Descending FlightAware ADS-B (SBSP / CGH)
08:07PM -23.5761 -46.6915 147° Southeast 144 166 3,400 -780 Descending FlightAware ADS-B (SBSP / CGH)
08:07PM -23.5845 -46.6857 147° Southeast 144 166 3,200 -780 Descending FlightAware ADS-B (SBSP / CGH)
08:07PM -23.5928 -46.6799 147° Southeast 144 166 3,000 -600 Descending FlightAware ADS-B (SBSP / CGH)
08:08PM -23.6020 -46.6736 147° Southeast 145 167 2,900 -600 Descending FlightAware ADS-B (SBSP / CGH)
08:08PM -23.6100 -46.6680 147° Southeast 143 165 2,700 -840 Descending FlightAware ADS-B (SBSP / CGH)
08:08PM -23.6188 -46.6620 147° Southeast 142 163 2,500 -840 Descending FlightAware ADS-B (SBSP / CGH)